Odate Noshiro, Japan

12:18 PM JST on August 27, 2016 (GMT +0900)
Odate-Noshiro | | Change Station

Elev 285 ft 40.19 °N, 140.37 °E | Updated 18 minutes ago

Scattered Clouds
Scattered Clouds
73 °F
Feels Like 73 °F
N
8
Wind Variable Wind from ENE

Today
High -- | Low -- °F
--% Chance of Precip.
Yesterday
High -- | Low -- °F
Precip. -- in
Pressure 29.77 in
Visibility 6.2 miles
Clouds Few 1500 ft
Scattered Clouds 3000 ft
Dew Point 57 °F
Humidity 57%
Rainfall 0.00 in
Snow Depth Not available.
5:01 AM 6:18 PM
Waning Crescent, 28% visible
METAR RJSR 270300Z 06007KT 350V140 9999 FEW015 SCT030 23/14 Q1008
Pressure 29.77 in
Visibility 6.2 miles
Clouds Few 1500 ft
Scattered Clouds 3000 ft
Dew Point 57 °F
Humidity 57%
Rainfall 0.00 in
Snow Depth Not available.
5:01 AM 6:18 PM
Waning Crescent, 28% visible
METAR RJSR 270300Z 06007KT 350V140 9999 FEW015 SCT030 23/14 Q1008

10-Day Weather Forecast

No radar image for this location.
×

Almanac

Astronomy

Aug. 27, 2016 Rise Set
Actual Time
Civil Twilight
Nautical Twilight
Astronomical Twilight
Moon
Length of Visible Light
Length of Day
Tomorrow will be .
, % of the Moon is Illuminated

Today's Extremes

Country Highs Country Lows

Community

WunderPhotos

Upload Photos

1,935,284 photos uploaded!

WunderBlog® & News

Nearby

Air Quality

  Air Quality AQ Index Pollutant
Not available.

Snow Depth

Station Depth Elevation

Earthquake Activity

City Distance Mag. Time & Date
Minimum magnitude displayed is 2.5.

Coastal Water Temperatures

Place Temperature

Stations

Nearby Weather Stations

Station Location Temp. Windchill Dew Point Humidity Wind Precip. Elev Updated Type